sensor_id;sensor_type;location;lat;lon;timestamp;P1;P2;P0
42410;PMS5003;28056;51.112;0.984;2023-07-20T00:04:51;2;2;
42410;PMS5003;28056;51.112;0.984;2023-07-20T00:07:18;5;4;
42410;PMS5003;28056;51.112;0.984;2023-07-20T00:09:46;3;2;
42410;PMS5003;28056;51.112;0.984;2023-07-20T00:12:13;3;3;
42410;PMS5003;28056;51.112;0.984;2023-07-20T00:14:41;2;2;
42410;PMS5003;28056;51.112;0.984;2023-07-20T00:17:09;5;4;
42410;PMS5003;28056;51.112;0.984;2023-07-20T00:19:36;3;3;
42410;PMS5003;28056;51.112;0.984;2023-07-20T00:22:04;6;3;
42410;PMS5003;28056;51.112;0.984;2023-07-20T00:24:31;4;4;
42410;PMS5003;28056;51.112;0.984;2023-07-20T00:26:59;4;4;
42410;PMS5003;28056;51.112;0.984;2023-07-20T00:29:26;4;3;
42410;PMS5003;28056;51.112;0.984;2023-07-20T00:31:54;3;3;
42410;PMS5003;28056;51.112;0.984;2023-07-20T00:34:22;4;4;
42410;PMS5003;28056;51.112;0.984;2023-07-20T00:36:49;4;4;
42410;PMS5003;28056;51.112;0.984;2023-07-20T00:39:17;3;3;
42410;PMS5003;28056;51.112;0.984;2023-07-20T00:41:45;3;3;
42410;PMS5003;28056;51.112;0.984;2023-07-20T00:44:12;3;3;
42410;PMS5003;28056;51.112;0.984;2023-07-20T00:46:40;5;4;
42410;PMS5003;28056;51.112;0.984;2023-07-20T00:49:07;4;4;
42410;PMS5003;28056;51.112;0.984;2023-07-20T00:51:35;3;3;
42410;PMS5003;28056;51.112;0.984;2023-07-20T00:54:03;4;4;
42410;PMS5003;28056;51.112;0.984;2023-07-20T00:56:30;3;3;
42410;PMS5003;28056;51.112;0.984;2023-07-20T00:58:58;3;3;
42410;PMS5003;28056;51.112;0.984;2023-07-20T01:01:25;2;2;
42410;PMS5003;28056;51.112;0.984;2023-07-20T01:03:53;5;4;
42410;PMS5003;28056;51.112;0.984;2023-07-20T01:06:24;4;4;
42410;PMS5003;28056;51.112;0.984;2023-07-20T01:09:00;4;4;
42410;PMS5003;28056;51.112;0.984;2023-07-20T01:11:36;4;4;
42410;PMS5003;28056;51.112;0.984;2023-07-20T01:14:09;4;4;
42410;PMS5003;28056;51.112;0.984;2023-07-20T01:16:38;5;3;
42410;PMS5003;28056;51.112;0.984;2023-07-20T01:19:05;4;4;
42410;PMS5003;28056;51.112;0.984;2023-07-20T01:21:38;3;3;
42410;PMS5003;28056;51.112;0.984;2023-07-20T01:24:30;4;4;
42410;PMS5003;28056;51.112;0.984;2023-07-20T01:27:17;3;3;
42410;PMS5003;28056;51.112;0.984;2023-07-20T01:31:35;3;3;
42410;PMS5003;28056;51.112;0.984;2023-07-20T01:34:05;4;4;
42410;PMS5003;28056;51.112;0.984;2023-07-20T01:36:36;4;4;
42410;PMS5003;28056;51.112;0.984;2023-07-20T01:39:04;3;3;
42410;PMS5003;28056;51.112;0.984;2023-07-20T01:41:35;3;3;
42410;PMS5003;28056;51.112;0.984;2023-07-20T01:44:03;3;3;
42410;PMS5003;28056;51.112;0.984;2023-07-20T01:46:31;3;3;
42410;PMS5003;28056;51.112;0.984;2023-07-20T01:48:58;4;4;
42410;PMS5003;28056;51.112;0.984;2023-07-20T01:51:26;6;6;
42410;PMS5003;28056;51.112;0.984;2023-07-20T01:53:54;5;4;
42410;PMS5003;28056;51.112;0.984;2023-07-20T01:56:21;3;3;
42410;PMS5003;28056;51.112;0.984;2023-07-20T01:58:49;4;4;
42410;PMS5003;28056;51.112;0.984;2023-07-20T02:01:16;4;4;
42410;PMS5003;28056;51.112;0.984;2023-07-20T02:03:43;5;5;
42410;PMS5003;28056;51.112;0.984;2023-07-20T02:06:11;3;3;
42410;PMS5003;28056;51.112;0.984;2023-07-20T02:08:39;3;3;
42410;PMS5003;28056;51.112;0.984;2023-07-20T02:11:06;5;5;
42410;PMS5003;28056;51.112;0.984;2023-07-20T02:13:34;3;3;
42410;PMS5003;28056;51.112;0.984;2023-07-20T02:16:02;5;5;
42410;PMS5003;28056;51.112;0.984;2023-07-20T02:18:29;3;3;
42410;PMS5003;28056;51.112;0.984;2023-07-20T02:20:57;3;3;
42410;PMS5003;28056;51.112;0.984;2023-07-20T02:23:25;3;3;
42410;PMS5003;28056;51.112;0.984;2023-07-20T02:25:52;4;4;
42410;PMS5003;28056;51.112;0.984;2023-07-20T02:28:20;3;3;
42410;PMS5003;28056;51.112;0.984;2023-07-20T02:30:48;4;4;
42410;PMS5003;28056;51.112;0.984;2023-07-20T02:33:15;3;3;
42410;PMS5003;28056;51.112;0.984;2023-07-20T02:35:43;5;4;
42410;PMS5003;28056;51.112;0.984;2023-07-20T02:38:10;5;4;
42410;PMS5003;28056;51.112;0.984;2023-07-20T02:40:39;4;4;
42410;PMS5003;28056;51.112;0.984;2023-07-20T02:43:06;3;3;
42410;PMS5003;28056;51.112;0.984;2023-07-20T02:45:33;3;3;
42410;PMS5003;28056;51.112;0.984;2023-07-20T02:48:01;4;4;
42410;PMS5003;28056;51.112;0.984;2023-07-20T02:50:29;3;3;
42410;PMS5003;28056;51.112;0.984;2023-07-20T02:52:56;4;4;
42410;PMS5003;28056;51.112;0.984;2023-07-20T02:55:24;4;4;
42410;PMS5003;28056;51.112;0.984;2023-07-20T02:57:52;6;4;
42410;PMS5003;28056;51.112;0.984;2023-07-20T03:00:19;6;5;
42410;PMS5003;28056;51.112;0.984;2023-07-20T03:02:47;6;5;
42410;PMS5003;28056;51.112;0.984;2023-07-20T03:05:15;5;5;
42410;PMS5003;28056;51.112;0.984;2023-07-20T03:07:42;5;5;
42410;PMS5003;28056;51.112;0.984;2023-07-20T03:10:10;3;3;
42410;PMS5003;28056;51.112;0.984;2023-07-20T03:12:37;4;3;
42410;PMS5003;28056;51.112;0.984;2023-07-20T03:15:05;3;3;
42410;PMS5003;28056;51.112;0.984;2023-07-20T03:17:33;4;4;
42410;PMS5003;28056;51.112;0.984;2023-07-20T03:20:01;4;4;
42410;PMS5003;28056;51.112;0.984;2023-07-20T03:22:29;3;3;
42410;PMS5003;28056;51.112;0.984;2023-07-20T03:24:55;2;2;
42410;PMS5003;28056;51.112;0.984;2023-07-20T03:27:22;4;3;
42410;PMS5003;28056;51.112;0.984;2023-07-20T03:29:50;6;4;
42410;PMS5003;28056;51.112;0.984;2023-07-20T03:32:18;4;4;
42410;PMS5003;28056;51.112;0.984;2023-07-20T03:34:45;3;3;
42410;PMS5003;28056;51.112;0.984;2023-07-20T03:37:13;4;4;
42410;PMS5003;28056;51.112;0.984;2023-07-20T03:39:40;2;2;
42410;PMS5003;28056;51.112;0.984;2023-07-20T03:42:08;2;2;
42410;PMS5003;28056;51.112;0.984;2023-07-20T03:44:36;4;4;
42410;PMS5003;28056;51.112;0.984;2023-07-20T03:47:04;2;2;
42410;PMS5003;28056;51.112;0.984;2023-07-20T03:49:32;4;4;
42410;PMS5003;28056;51.112;0.984;2023-07-20T03:52:00;2;2;
42410;PMS5003;28056;51.112;0.984;2023-07-20T03:54:27;5;3;
42410;PMS5003;28056;51.112;0.984;2023-07-20T03:56:55;3;3;
42410;PMS5003;28056;51.112;0.984;2023-07-20T03:59:23;2;2;
42410;PMS5003;28056;51.112;0.984;2023-07-20T04:01:50;3;3;
42410;PMS5003;28056;51.112;0.984;2023-07-20T04:04:18;2;2;
42410;PMS5003;28056;51.112;0.984;2023-07-20T04:06:45;3;3;
42410;PMS5003;28056;51.112;0.984;2023-07-20T04:09:13;3;2;
42410;PMS5003;28056;51.112;0.984;2023-07-20T04:11:41;2;2;
42410;PMS5003;28056;51.112;0.984;2023-07-20T04:14:09;2;2;
42410;PMS5003;28056;51.112;0.984;2023-07-20T04:16:36;3;3;
42410;PMS5003;28056;51.112;0.984;2023-07-20T04:19:04;4;4;
42410;PMS5003;28056;51.112;0.984;2023-07-20T04:21:31;1;1;
42410;PMS5003;28056;51.112;0.984;2023-07-20T04:23:59;2;2;
42410;PMS5003;28056;51.112;0.984;2023-07-20T04:26:27;3;3;
42410;PMS5003;28056;51.112;0.984;2023-07-20T04:28:54;3;3;
42410;PMS5003;28056;51.112;0.984;2023-07-20T04:31:22;3;3;
42410;PMS5003;28056;51.112;0.984;2023-07-20T04:33:50;4;3;
42410;PMS5003;28056;51.112;0.984;2023-07-20T04:36:17;4;4;
42410;PMS5003;28056;51.112;0.984;2023-07-20T04:38:45;2;2;
42410;PMS5003;28056;51.112;0.984;2023-07-20T04:41:13;4;4;
42410;PMS5003;28056;51.112;0.984;2023-07-20T04:43:41;4;4;
42410;PMS5003;28056;51.112;0.984;2023-07-20T04:46:08;4;4;
42410;PMS5003;28056;51.112;0.984;2023-07-20T04:48:36;3;3;
42410;PMS5003;28056;51.112;0.984;2023-07-20T04:51:03;3;3;
42410;PMS5003;28056;51.112;0.984;2023-07-20T04:53:31;5;5;
42410;PMS5003;28056;51.112;0.984;2023-07-20T04:55:59;3;3;
42410;PMS5003;28056;51.112;0.984;2023-07-20T04:58:26;5;3;
42410;PMS5003;28056;51.112;0.984;2023-07-20T05:00:54;4;4;
42410;PMS5003;28056;51.112;0.984;2023-07-20T05:03:22;3;3;
42410;PMS5003;28056;51.112;0.984;2023-07-20T05:05:49;3;3;
42410;PMS5003;28056;51.112;0.984;2023-07-20T05:08:17;3;3;
42410;PMS5003;28056;51.112;0.984;2023-07-20T05:10:45;4;4;
42410;PMS5003;28056;51.112;0.984;2023-07-20T05:13:12;3;3;
42410;PMS5003;28056;51.112;0.984;2023-07-20T05:15:40;5;5;
42410;PMS5003;28056;51.112;0.984;2023-07-20T05:18:08;3;3;
42410;PMS5003;28056;51.112;0.984;2023-07-20T05:20:35;3;3;
42410;PMS5003;28056;51.112;0.984;2023-07-20T05:23:03;3;3;
42410;PMS5003;28056;51.112;0.984;2023-07-20T05:25:30;7;4;
42410;PMS5003;28056;51.112;0.984;2023-07-20T05:27:58;5;5;
42410;PMS5003;28056;51.112;0.984;2023-07-20T05:30:25;5;5;
42410;PMS5003;28056;51.112;0.984;2023-07-20T05:32:53;7;5;
42410;PMS5003;28056;51.112;0.984;2023-07-20T05:35:21;5;4;
42410;PMS5003;28056;51.112;0.984;2023-07-20T05:37:49;4;4;
42410;PMS5003;28056;51.112;0.984;2023-07-20T05:40:17;5;3;
42410;PMS5003;28056;51.112;0.984;2023-07-20T05:42:45;5;5;
42410;PMS5003;28056;51.112;0.984;2023-07-20T05:45:12;5;5;
42410;PMS5003;28056;51.112;0.984;2023-07-20T05:47:41;7;6;
42410;PMS5003;28056;51.112;0.984;2023-07-20T05:50:09;4;4;
42410;PMS5003;28056;51.112;0.984;2023-07-20T05:52:36;7;5;
42410;PMS5003;28056;51.112;0.984;2023-07-20T05:55:04;6;6;
42410;PMS5003;28056;51.112;0.984;2023-07-20T05:57:32;9;7;
42410;PMS5003;28056;51.112;0.984;2023-07-20T06:00:00;6;6;
42410;PMS5003;28056;51.112;0.984;2023-07-20T06:02:27;6;6;
42410;PMS5003;28056;51.112;0.984;2023-07-20T06:04:55;5;5;
42410;PMS5003;28056;51.112;0.984;2023-07-20T06:07:23;7;6;
42410;PMS5003;28056;51.112;0.984;2023-07-20T06:09:50;6;6;
42410;PMS5003;28056;51.112;0.984;2023-07-20T06:12:18;5;5;
42410;PMS5003;28056;51.112;0.984;2023-07-20T06:14:45;6;6;
42410;PMS5003;28056;51.112;0.984;2023-07-20T06:17:13;8;6;
42410;PMS5003;28056;51.112;0.984;2023-07-20T06:19:41;11;9;
42410;PMS5003;28056;51.112;0.984;2023-07-20T06:22:08;12;12;
42410;PMS5003;28056;51.112;0.984;2023-07-20T06:24:36;10;8;
42410;PMS5003;28056;51.112;0.984;2023-07-20T06:27:04;7;7;
42410;PMS5003;28056;51.112;0.984;2023-07-20T06:29:32;10;9;
42410;PMS5003;28056;51.112;0.984;2023-07-20T06:31:59;11;7;
42410;PMS5003;28056;51.112;0.984;2023-07-20T06:34:27;6;6;
42410;PMS5003;28056;51.112;0.984;2023-07-20T06:36:55;9;7;
42410;PMS5003;28056;51.112;0.984;2023-07-20T06:39:22;7;7;
42410;PMS5003;28056;51.112;0.984;2023-07-20T06:41:50;9;8;
42410;PMS5003;28056;51.112;0.984;2023-07-20T06:44:17;7;7;
42410;PMS5003;28056;51.112;0.984;2023-07-20T06:46:45;7;5;
42410;PMS5003;28056;51.112;0.984;2023-07-20T06:49:23;8;8;
42410;PMS5003;28056;51.112;0.984;2023-07-20T06:51:51;7;7;
42410;PMS5003;28056;51.112;0.984;2023-07-20T06:54:19;9;9;
42410;PMS5003;28056;51.112;0.984;2023-07-20T06:56:47;7;6;
42410;PMS5003;28056;51.112;0.984;2023-07-20T06:59:14;7;6;
42410;PMS5003;28056;51.112;0.984;2023-07-20T07:01:43;6;6;
42410;PMS5003;28056;51.112;0.984;2023-07-20T07:04:10;7;7;
42410;PMS5003;28056;51.112;0.984;2023-07-20T07:06:37;5;5;
42410;PMS5003;28056;51.112;0.984;2023-07-20T07:09:05;6;6;
42410;PMS5003;28056;51.112;0.984;2023-07-20T07:11:32;7;7;
42410;PMS5003;28056;51.112;0.984;2023-07-20T07:14:00;12;8;
42410;PMS5003;28056;51.112;0.984;2023-07-20T07:16:27;7;7;
42410;PMS5003;28056;51.112;0.984;2023-07-20T07:18:55;10;10;
42410;PMS5003;28056;51.112;0.984;2023-07-20T07:21:23;10;9;
42410;PMS5003;28056;51.112;0.984;2023-07-20T07:23:50;8;8;
42410;PMS5003;28056;51.112;0.984;2023-07-20T07:26:17;7;7;
42410;PMS5003;28056;51.112;0.984;2023-07-20T07:28:45;11;11;
42410;PMS5003;28056;51.112;0.984;2023-07-20T07:31:13;9;9;
42410;PMS5003;28056;51.112;0.984;2023-07-20T07:33:41;11;11;
42410;PMS5003;28056;51.112;0.984;2023-07-20T07:36:08;10;8;
42410;PMS5003;28056;51.112;0.984;2023-07-20T07:38:36;11;9;
42410;PMS5003;28056;51.112;0.984;2023-07-20T07:41:03;8;8;
42410;PMS5003;28056;51.112;0.984;2023-07-20T07:43:31;8;8;
42410;PMS5003;28056;51.112;0.984;2023-07-20T07:45:58;9;9;
42410;PMS5003;28056;51.112;0.984;2023-07-20T07:48:26;7;7;
42410;PMS5003;28056;51.112;0.984;2023-07-20T07:50:54;10;9;
42410;PMS5003;28056;51.112;0.984;2023-07-20T07:53:22;24;24;
42410;PMS5003;28056;51.112;0.984;2023-07-20T07:55:50;8;8;
42410;PMS5003;28056;51.112;0.984;2023-07-20T07:58:17;7;7;
42410;PMS5003;28056;51.112;0.984;2023-07-20T08:00:45;8;6;
42410;PMS5003;28056;51.112;0.984;2023-07-20T08:03:12;7;7;
42410;PMS5003;28056;51.112;0.984;2023-07-20T08:05:39;6;6;
42410;PMS5003;28056;51.112;0.984;2023-07-20T08:08:08;5;5;
42410;PMS5003;28056;51.112;0.984;2023-07-20T08:10:35;5;5;
42410;PMS5003;28056;51.112;0.984;2023-07-20T08:13:02;8;6;
42410;PMS5003;28056;51.112;0.984;2023-07-20T08:15:30;8;6;
42410;PMS5003;28056;51.112;0.984;2023-07-20T08:17:58;8;7;
42410;PMS5003;28056;51.112;0.984;2023-07-20T08:20:25;4;4;
42410;PMS5003;28056;51.112;0.984;2023-07-20T08:22:53;6;6;
42410;PMS5003;28056;51.112;0.984;2023-07-20T08:25:20;5;5;
42410;PMS5003;28056;51.112;0.984;2023-07-20T08:27:48;6;6;
42410;PMS5003;28056;51.112;0.984;2023-07-20T08:30:15;6;5;
42410;PMS5003;28056;51.112;0.984;2023-07-20T08:32:43;5;5;
42410;PMS5003;28056;51.112;0.984;2023-07-20T08:35:10;6;4;
42410;PMS5003;28056;51.112;0.984;2023-07-20T08:37:38;4;4;
42410;PMS5003;28056;51.112;0.984;2023-07-20T08:40:06;4;4;
42410;PMS5003;28056;51.112;0.984;2023-07-20T08:42:34;4;4;
42410;PMS5003;28056;51.112;0.984;2023-07-20T08:45:04;5;5;
42410;PMS5003;28056;51.112;0.984;2023-07-20T08:47:34;4;4;
42410;PMS5003;28056;51.112;0.984;2023-07-20T08:50:02;5;5;
42410;PMS5003;28056;51.112;0.984;2023-07-20T08:52:33;5;4;
42410;PMS5003;28056;51.112;0.984;2023-07-20T08:55:01;4;4;
42410;PMS5003;28056;51.112;0.984;2023-07-20T08:57:30;4;4;
42410;PMS5003;28056;51.112;0.984;2023-07-20T09:00:00;5;5;
42410;PMS5003;28056;51.112;0.984;2023-07-20T09:02:28;3;3;
42410;PMS5003;28056;51.112;0.984;2023-07-20T09:04:55;4;4;
42410;PMS5003;28056;51.112;0.984;2023-07-20T09:07:23;5;5;
42410;PMS5003;28056;51.112;0.984;2023-07-20T09:09:51;4;4;
42410;PMS5003;28056;51.112;0.984;2023-07-20T09:12:19;5;4;
42410;PMS5003;28056;51.112;0.984;2023-07-20T09:14:46;6;5;
42410;PMS5003;28056;51.112;0.984;2023-07-20T09:17:14;12;11;
42410;PMS5003;28056;51.112;0.984;2023-07-20T09:19:45;22;18;
42410;PMS5003;28056;51.112;0.984;2023-07-20T09:22:13;16;14;
42410;PMS5003;28056;51.112;0.984;2023-07-20T09:24:40;9;8;
42410;PMS5003;28056;51.112;0.984;2023-07-20T09:27:08;7;6;
42410;PMS5003;28056;51.112;0.984;2023-07-20T09:29:36;5;5;
42410;PMS5003;28056;51.112;0.984;2023-07-20T09:32:15;6;4;
42410;PMS5003;28056;51.112;0.984;2023-07-20T09:34:45;7;6;
42410;PMS5003;28056;51.112;0.984;2023-07-20T09:37:13;6;6;
42410;PMS5003;28056;51.112;0.984;2023-07-20T09:39:43;5;5;
42410;PMS5003;28056;51.112;0.984;2023-07-20T09:42:11;6;6;
42410;PMS5003;28056;51.112;0.984;2023-07-20T09:44:39;6;6;
42410;PMS5003;28056;51.112;0.984;2023-07-20T09:47:06;7;6;
42410;PMS5003;28056;51.112;0.984;2023-07-20T09:49:38;5;5;
42410;PMS5003;28056;51.112;0.984;2023-07-20T09:52:06;5;5;
42410;PMS5003;28056;51.112;0.984;2023-07-20T09:54:34;8;8;
42410;PMS5003;28056;51.112;0.984;2023-07-20T09:57:04;6;5;
42410;PMS5003;28056;51.112;0.984;2023-07-20T09:59:34;7;7;
42410;PMS5003;28056;51.112;0.984;2023-07-20T10:02:34;6;6;
42410;PMS5003;28056;51.112;0.984;2023-07-20T10:05:09;9;8;
42410;PMS5003;28056;51.112;0.984;2023-07-20T10:07:40;7;7;
42410;PMS5003;28056;51.112;0.984;2023-07-20T10:10:10;8;8;
42410;PMS5003;28056;51.112;0.984;2023-07-20T10:12:39;9;8;
42410;PMS5003;28056;51.112;0.984;2023-07-20T10:15:11;10;8;
42410;PMS5003;28056;51.112;0.984;2023-07-20T10:17:45;7;7;
42410;PMS5003;28056;51.112;0.984;2023-07-20T10:20:19;12;10;
42410;PMS5003;28056;51.112;0.984;2023-07-20T10:22:47;10;10;
42410;PMS5003;28056;51.112;0.984;2023-07-20T10:25:19;10;8;
42410;PMS5003;28056;51.112;0.984;2023-07-20T10:27:48;10;9;
42410;PMS5003;28056;51.112;0.984;2023-07-20T10:30:16;9;9;
42410;PMS5003;28056;51.112;0.984;2023-07-20T10:32:45;12;11;
42410;PMS5003;28056;51.112;0.984;2023-07-20T10:35:14;9;9;
42410;PMS5003;28056;51.112;0.984;2023-07-20T10:37:48;7;7;
42410;PMS5003;28056;51.112;0.984;2023-07-20T10:40:29;8;6;
42410;PMS5003;28056;51.112;0.984;2023-07-20T10:43:01;7;7;
42410;PMS5003;28056;51.112;0.984;2023-07-20T10:45:48;5;5;
42410;PMS5003;28056;51.112;0.984;2023-07-20T10:48:18;5;5;
42410;PMS5003;28056;51.112;0.984;2023-07-20T10:51:08;5;5;
42410;PMS5003;28056;51.112;0.984;2023-07-20T10:53:37;7;5;
42410;PMS5003;28056;51.112;0.984;2023-07-20T10:56:06;5;5;
42410;PMS5003;28056;51.112;0.984;2023-07-20T10:58:35;6;6;
42410;PMS5003;28056;51.112;0.984;2023-07-20T11:01:03;5;5;
42410;PMS5003;28056;51.112;0.984;2023-07-20T11:03:31;5;5;
42410;PMS5003;28056;51.112;0.984;2023-07-20T11:05:59;5;5;
42410;PMS5003;28056;51.112;0.984;2023-07-20T11:08:55;5;5;
42410;PMS5003;28056;51.112;0.984;2023-07-20T11:11:34;5;4;
42410;PMS5003;28056;51.112;0.984;2023-07-20T11:14:02;4;4;
42410;PMS5003;28056;51.112;0.984;2023-07-20T11:16:39;3;3;
42410;PMS5003;28056;51.112;0.984;2023-07-20T11:19:16;3;3;
42410;PMS5003;28056;51.112;0.984;2023-07-20T11:21:44;4;4;
42410;PMS5003;28056;51.112;0.984;2023-07-20T11:24:13;6;3;
42410;PMS5003;28056;51.112;0.984;2023-07-20T11:26:41;5;5;
42410;PMS5003;28056;51.112;0.984;2023-07-20T11:29:10;3;3;
42410;PMS5003;28056;51.112;0.984;2023-07-20T11:31:38;4;4;
42410;PMS5003;28056;51.112;0.984;2023-07-20T11:34:10;3;3;
42410;PMS5003;28056;51.112;0.984;2023-07-20T11:36:39;3;3;
42410;PMS5003;28056;51.112;0.984;2023-07-20T11:39:09;3;3;
42410;PMS5003;28056;51.112;0.984;2023-07-20T11:41:37;5;5;
42410;PMS5003;28056;51.112;0.984;2023-07-20T11:44:05;6;3;
42410;PMS5003;28056;51.112;0.984;2023-07-20T11:46:32;3;3;
42410;PMS5003;28056;51.112;0.984;2023-07-20T11:49:00;5;5;
42410;PMS5003;28056;51.112;0.984;2023-07-20T11:51:32;5;3;
42410;PMS5003;28056;51.112;0.984;2023-07-20T11:54:01;5;5;
42410;PMS5003;28056;51.112;0.984;2023-07-20T11:56:29;6;6;
42410;PMS5003;28056;51.112;0.984;2023-07-20T11:58:57;6;6;
42410;PMS5003;28056;51.112;0.984;2023-07-20T12:01:25;6;6;
42410;PMS5003;28056;51.112;0.984;2023-07-20T12:03:54;5;5;
42410;PMS5003;28056;51.112;0.984;2023-07-20T12:06:23;6;6;
42410;PMS5003;28056;51.112;0.984;2023-07-20T12:08:53;8;6;
42410;PMS5003;28056;51.112;0.984;2023-07-20T12:11:37;7;7;
42410;PMS5003;28056;51.112;0.984;2023-07-20T12:14:06;12;12;
42410;PMS5003;28056;51.112;0.984;2023-07-20T12:16:35;14;12;
42410;PMS5003;28056;51.112;0.984;2023-07-20T12:19:04;16;14;
42410;PMS5003;28056;51.112;0.984;2023-07-20T12:21:33;13;11;
42410;PMS5003;28056;51.112;0.984;2023-07-20T12:24:01;10;10;
42410;PMS5003;28056;51.112;0.984;2023-07-20T12:26:29;8;8;
42410;PMS5003;28056;51.112;0.984;2023-07-20T12:28:57;7;7;
42410;PMS5003;28056;51.112;0.984;2023-07-20T12:31:25;7;7;
42410;PMS5003;28056;51.112;0.984;2023-07-20T12:33:54;6;6;
42410;PMS5003;28056;51.112;0.984;2023-07-20T12:36:23;5;5;
42410;PMS5003;28056;51.112;0.984;2023-07-20T12:38:51;6;6;
42410;PMS5003;28056;51.112;0.984;2023-07-20T12:41:19;6;6;
42410;PMS5003;28056;51.112;0.984;2023-07-20T12:43:46;10;9;
42410;PMS5003;28056;51.112;0.984;2023-07-20T12:46:14;10;10;
42410;PMS5003;28056;51.112;0.984;2023-07-20T12:48:42;9;9;
42410;PMS5003;28056;51.112;0.984;2023-07-20T12:51:09;8;8;
42410;PMS5003;28056;51.112;0.984;2023-07-20T12:53:38;9;8;
42410;PMS5003;28056;51.112;0.984;2023-07-20T12:56:06;6;6;
42410;PMS5003;28056;51.112;0.984;2023-07-20T12:58:33;6;6;
42410;PMS5003;28056;51.112;0.984;2023-07-20T13:01:00;5;5;
42410;PMS5003;28056;51.112;0.984;2023-07-20T13:03:28;4;4;
42410;PMS5003;28056;51.112;0.984;2023-07-20T13:05:56;4;4;
42410;PMS5003;28056;51.112;0.984;2023-07-20T13:08:23;5;4;
42410;PMS5003;28056;51.112;0.984;2023-07-20T13:10:51;4;4;
42410;PMS5003;28056;51.112;0.984;2023-07-20T13:13:18;3;3;
42410;PMS5003;28056;51.112;0.984;2023-07-20T13:15:46;6;6;
42410;PMS5003;28056;51.112;0.984;2023-07-20T13:18:13;7;5;
42410;PMS5003;28056;51.112;0.984;2023-07-20T13:20:41;8;6;
42410;PMS5003;28056;51.112;0.984;2023-07-20T13:23:08;8;7;
42410;PMS5003;28056;51.112;0.984;2023-07-20T13:25:36;6;6;
42410;PMS5003;28056;51.112;0.984;2023-07-20T13:28:04;6;6;
42410;PMS5003;28056;51.112;0.984;2023-07-20T13:30:32;11;10;
42410;PMS5003;28056;51.112;0.984;2023-07-20T13:32:59;8;8;
42410;PMS5003;28056;51.112;0.984;2023-07-20T13:35:27;10;9;
42410;PMS5003;28056;51.112;0.984;2023-07-20T13:37:55;11;10;
42410;PMS5003;28056;51.112;0.984;2023-07-20T13:40:22;11;11;
42410;PMS5003;28056;51.112;0.984;2023-07-20T13:42:50;12;12;
42410;PMS5003;28056;51.112;0.984;2023-07-20T13:45:17;9;9;
42410;PMS5003;28056;51.112;0.984;2023-07-20T13:47:45;7;6;
42410;PMS5003;28056;51.112;0.984;2023-07-20T13:50:13;15;12;
42410;PMS5003;28056;51.112;0.984;2023-07-20T13:52:40;9;9;
42410;PMS5003;28056;51.112;0.984;2023-07-20T13:55:08;12;10;
42410;PMS5003;28056;51.112;0.984;2023-07-20T13:57:35;12;12;
42410;PMS5003;28056;51.112;0.984;2023-07-20T14:00:03;11;11;
42410;PMS5003;28056;51.112;0.984;2023-07-20T14:02:31;12;12;
42410;PMS5003;28056;51.112;0.984;2023-07-20T14:04:59;9;9;
42410;PMS5003;28056;51.112;0.984;2023-07-20T14:07:26;7;7;
42410;PMS5003;28056;51.112;0.984;2023-07-20T14:09:54;10;8;
42410;PMS5003;28056;51.112;0.984;2023-07-20T14:12:21;11;10;
42410;PMS5003;28056;51.112;0.984;2023-07-20T14:14:49;12;12;
42410;PMS5003;28056;51.112;0.984;2023-07-20T14:17:16;11;10;
42410;PMS5003;28056;51.112;0.984;2023-07-20T14:19:44;7;7;
42410;PMS5003;28056;51.112;0.984;2023-07-20T14:22:11;11;9;
42410;PMS5003;28056;51.112;0.984;2023-07-20T14:24:39;8;8;
42410;PMS5003;28056;51.112;0.984;2023-07-20T14:27:06;7;7;
42410;PMS5003;28056;51.112;0.984;2023-07-20T14:29:34;7;7;
42410;PMS5003;28056;51.112;0.984;2023-07-20T14:32:01;6;6;
42410;PMS5003;28056;51.112;0.984;2023-07-20T14:34:29;8;8;
42410;PMS5003;28056;51.112;0.984;2023-07-20T14:36:58;5;5;
42410;PMS5003;28056;51.112;0.984;2023-07-20T14:39:26;7;6;
42410;PMS5003;28056;51.112;0.984;2023-07-20T14:41:53;5;5;
42410;PMS5003;28056;51.112;0.984;2023-07-20T14:44:21;5;5;
42410;PMS5003;28056;51.112;0.984;2023-07-20T14:46:48;6;6;
42410;PMS5003;28056;51.112;0.984;2023-07-20T14:49:17;7;7;
42410;PMS5003;28056;51.112;0.984;2023-07-20T14:51:45;8;8;
42410;PMS5003;28056;51.112;0.984;2023-07-20T14:54:13;7;7;
42410;PMS5003;28056;51.112;0.984;2023-07-20T14:56:47;11;8;
42410;PMS5003;28056;51.112;0.984;2023-07-20T14:59:16;8;8;
42410;PMS5003;28056;51.112;0.984;2023-07-20T15:01:43;6;6;
42410;PMS5003;28056;51.112;0.984;2023-07-20T15:04:11;7;7;
42410;PMS5003;28056;51.112;0.984;2023-07-20T15:06:38;7;7;
42410;PMS5003;28056;51.112;0.984;2023-07-20T15:09:06;6;6;
42410;PMS5003;28056;51.112;0.984;2023-07-20T15:11:33;7;7;
42410;PMS5003;28056;51.112;0.984;2023-07-20T15:14:01;7;7;
42410;PMS5003;28056;51.112;0.984;2023-07-20T15:16:29;6;6;
42410;PMS5003;28056;51.112;0.984;2023-07-20T15:18:56;11;9;
42410;PMS5003;28056;51.112;0.984;2023-07-20T15:21:24;9;7;
42410;PMS5003;28056;51.112;0.984;2023-07-20T15:23:51;13;12;
42410;PMS5003;28056;51.112;0.984;2023-07-20T15:26:19;10;8;
42410;PMS5003;28056;51.112;0.984;2023-07-20T15:28:46;9;9;
42410;PMS5003;28056;51.112;0.984;2023-07-20T15:31:14;9;9;
42410;PMS5003;28056;51.112;0.984;2023-07-20T15:33:41;6;6;
42410;PMS5003;28056;51.112;0.984;2023-07-20T15:36:09;11;11;
42410;PMS5003;28056;51.112;0.984;2023-07-20T15:38:37;8;8;
42410;PMS5003;28056;51.112;0.984;2023-07-20T15:41:04;8;8;
42410;PMS5003;28056;51.112;0.984;2023-07-20T15:43:32;9;9;
42410;PMS5003;28056;51.112;0.984;2023-07-20T15:46:01;8;8;
42410;PMS5003;28056;51.112;0.984;2023-07-20T15:49:09;6;6;
42410;PMS5003;28056;51.112;0.984;2023-07-20T15:51:37;8;8;
42410;PMS5003;28056;51.112;0.984;2023-07-20T15:54:04;11;11;
42410;PMS5003;28056;51.112;0.984;2023-07-20T15:56:34;8;7;
42410;PMS5003;28056;51.112;0.984;2023-07-20T15:59:03;8;8;
42410;PMS5003;28056;51.112;0.984;2023-07-20T16:01:30;7;7;
42410;PMS5003;28056;51.112;0.984;2023-07-20T16:03:58;8;7;
42410;PMS5003;28056;51.112;0.984;2023-07-20T16:06:25;6;6;
42410;PMS5003;28056;51.112;0.984;2023-07-20T16:08:53;8;8;
42410;PMS5003;28056;51.112;0.984;2023-07-20T16:11:21;7;7;
42410;PMS5003;28056;51.112;0.984;2023-07-20T16:13:48;11;9;
42410;PMS5003;28056;51.112;0.984;2023-07-20T16:16:16;8;8;
42410;PMS5003;28056;51.112;0.984;2023-07-20T16:18:43;9;9;
42410;PMS5003;28056;51.112;0.984;2023-07-20T16:21:11;9;9;
42410;PMS5003;28056;51.112;0.984;2023-07-20T16:23:40;6;6;
42410;PMS5003;28056;51.112;0.984;2023-07-20T16:26:07;6;6;
42410;PMS5003;28056;51.112;0.984;2023-07-20T16:28:35;10;8;
42410;PMS5003;28056;51.112;0.984;2023-07-20T16:31:08;6;6;
42410;PMS5003;28056;51.112;0.984;2023-07-20T16:33:36;9;8;
42410;PMS5003;28056;51.112;0.984;2023-07-20T16:36:04;10;10;
42410;PMS5003;28056;51.112;0.984;2023-07-20T16:38:34;10;10;
42410;PMS5003;28056;51.112;0.984;2023-07-20T16:41:02;14;12;
42410;PMS5003;28056;51.112;0.984;2023-07-20T16:43:30;15;15;
42410;PMS5003;28056;51.112;0.984;2023-07-20T16:45:59;11;11;
42410;PMS5003;28056;51.112;0.984;2023-07-20T16:48:27;11;11;
42410;PMS5003;28056;51.112;0.984;2023-07-20T16:50:55;9;9;
42410;PMS5003;28056;51.112;0.984;2023-07-20T16:53:23;11;10;
42410;PMS5003;28056;51.112;0.984;2023-07-20T16:55:51;9;9;
42410;PMS5003;28056;51.112;0.984;2023-07-20T16:58:19;9;8;
42410;PMS5003;28056;51.112;0.984;2023-07-20T17:00:47;11;10;
42410;PMS5003;28056;51.112;0.984;2023-07-20T17:03:15;11;11;